Time,TemperatureF,DewpointF,PressureIn,WindDirection,WindDirectionDegrees,WindSpeedMPH,WindSpeedGustMPH,Humidity,HourlyPrecipIn,Conditions,Clouds,dailyrainin,SolarRadiationWatts/m^2,SoftwareType,DateUTC
2013-02-18 00:02:00,22.0,14.0,-100.00,South,171,10.0,19.0,70,0.00,,,0.00,1.000000,,2013-02-18 06:02:00,
2013-02-18 00:11:00,22.0,14.0,-100.00,South,171,10.0,19.0,70,0.00,,,0.00,1.000000,,2013-02-18 06:11:00,
2013-02-18 00:42:00,22.0,14.0,-100.00,South,173,10.0,23.0,71,0.00,,,0.00,0.000000,,2013-02-18 06:42:00,
2013-02-18 00:52:00,22.0,14.0,-100.00,South,173,10.0,23.0,71,0.00,,,0.00,0.000000,,2013-02-18 06:52:00,
2013-02-18 01:01:00,22.0,14.0,-100.00,South,173,10.0,23.0,71,0.00,,,0.00,0.000000,,2013-02-18 07:01:00,
2013-02-18 01:11:00,22.0,14.0,-100.00,South,173,10.0,23.0,71,0.00,,,0.00,0.000000,,2013-02-18 07:11:00,
2013-02-18 01:42:00,22.0,14.0,-100.00,South,170,7.0,22.0,72,0.00,,,0.00,0.000000,,2013-02-18 07:42:00,
2013-02-18 01:52:00,22.0,14.0,-100.00,South,170,7.0,22.0,72,0.00,,,0.00,0.000000,,2013-02-18 07:52:00,
2013-02-18 02:01:00,22.0,14.0,-100.00,South,170,7.0,22.0,72,0.00,,,0.00,0.000000,,2013-02-18 08:01:00,
2013-02-18 02:11:00,22.0,14.0,-100.00,South,170,7.0,22.0,72,0.00,,,0.00,0.000000,,2013-02-18 08:11:00,
2013-02-18 02:33:00,22.0,14.0,-100.00,South,169,8.0,13.0,72,0.00,,,0.00,0.000000,,2013-02-18 08:33:00,
2013-02-18 02:42:00,22.0,14.0,-100.00,South,169,8.0,13.0,72,0.00,,,0.00,0.000000,,2013-02-18 08:42:00,
2013-02-18 02:52:00,22.0,14.0,-100.00,South,169,8.0,13.0,72,0.00,,,0.00,0.000000,,2013-02-18 08:52:00,
2013-02-18 03:02:00,22.0,14.0,-100.00,South,169,8.0,13.0,72,0.00,,,0.00,0.000000,,2013-02-18 09:02:00,
2013-02-18 03:11:00,22.0,14.0,-100.00,South,169,8.0,13.0,72,0.00,,,0.00,0.000000,,2013-02-18 09:11:00,
2013-02-18 03:32:00,21.0,14.0,-100.00,SSE,160,7.0,15.0,74,0.00,,,0.00,0.000000,,2013-02-18 09:32:00,
2013-02-18 03:42:00,21.0,14.0,-100.00,SSE,160,7.0,15.0,74,0.00,,,0.00,0.000000,,2013-02-18 09:42:00,
2013-02-18 03:52:00,21.0,14.0,-100.00,SSE,160,7.0,15.0,74,0.00,,,0.00,0.000000,,2013-02-18 09:52:00,
2013-02-18 04:01:00,21.0,14.0,-100.00,SSE,160,7.0,15.0,74,0.00,,,0.00,0.000000,,2013-02-18 10:01:00,
2013-02-18 04:11:00,21.0,14.0,-100.00,SSE,160,7.0,15.0,74,0.00,,,0.00,0.000000,,2013-02-18 10:11:00,
2013-02-18 04:42:00,21.0,15.0,-100.00,SSE,166,7.0,15.0,76,0.00,,,0.00,1.000000,,2013-02-18 10:42:00,
2013-02-18 04:53:00,21.0,15.0,-100.00,SSE,166,7.0,15.0,76,0.00,,,0.00,1.000000,,2013-02-18 10:53:00,
2013-02-18 05:01:00,21.0,15.0,-100.00,SSE,166,7.0,15.0,76,0.00,,,0.00,1.000000,,2013-02-18 11:01:00,
2013-02-18 05:11:00,21.0,15.0,-100.00,SSE,166,7.0,15.0,76,0.00,,,0.00,1.000000,,2013-02-18 11:11:00,
2013-02-18 05:43:00,22.0,16.0,-100.00,SSE,156,8.0,14.0,77,0.00,,,0.00,1.000000,,2013-02-18 11:43:00,
2013-02-18 05:53:00,22.0,16.0,-100.00,SSE,156,8.0,14.0,77,0.00,,,0.00,1.000000,,2013-02-18 11:53:00,
2013-02-18 06:02:00,22.0,16.0,-100.00,SSE,156,8.0,14.0,77,0.00,,,0.00,1.000000,,2013-02-18 12:02:00,
2013-02-18 06:11:00,22.0,16.0,-100.00,SSE,156,8.0,14.0,77,0.00,,,0.00,1.000000,,2013-02-18 12:11:00,
2013-02-18 06:32:00,21.0,16.0,-100.00,SSE,152,8.0,15.0,79,0.00,,,0.00,0.000000,,2013-02-18 12:32:00,
2013-02-18 06:42:00,21.0,16.0,-100.00,SSE,152,8.0,15.0,79,0.00,,,0.00,0.000000,,2013-02-18 12:42:00,
2013-02-18 06:53:00,21.0,16.0,-100.00,SSE,152,8.0,15.0,79,0.00,,,0.00,0.000000,,2013-02-18 12:53:00,
2013-02-18 07:03:00,21.0,16.0,-100.00,SSE,152,8.0,15.0,79,0.00,,,0.00,0.000000,,2013-02-18 13:03:00,
2013-02-18 07:12:00,21.0,16.0,-100.00,SSE,152,8.0,15.0,79,0.00,,,0.00,0.000000,,2013-02-18 13:12:00,
2013-02-18 07:42:00,21.0,16.0,-100.00,SSE,156,8.0,13.0,81,0.00,,,-99.99,1.000000,,2013-02-18 13:42:00,
2013-02-18 07:53:00,21.0,16.0,-100.00,SSE,156,8.0,13.0,81,0.00,,,-99.99,1.000000,,2013-02-18 13:53:00,
2013-02-18 08:02:00,21.0,16.0,-100.00,SSE,156,8.0,13.0,81,0.00,,,-99.99,1.000000,,2013-02-18 14:02:00,
2013-02-18 08:11:00,21.0,16.0,-100.00,SSE,156,8.0,13.0,81,0.00,,,-99.99,1.000000,,2013-02-18 14:11:00,
2013-02-18 08:34:00,21.0,16.0,-100.00,SE,143,5.0,12.0,82,0.00,,,0.00,5.000000,,2013-02-18 14:34:00,
2013-02-18 08:42:00,21.0,16.0,-100.00,SE,143,5.0,12.0,82,0.00,,,0.00,5.000000,,2013-02-18 14:42:00,
2013-02-18 08:53:00,21.0,16.0,-100.00,SE,143,5.0,12.0,82,0.00,,,0.00,5.000000,,2013-02-18 14:53:00,
2013-02-18 09:02:00,21.0,16.0,-100.00,SE,143,5.0,12.0,82,0.00,,,0.00,5.000000,,2013-02-18 15:02:00,
2013-02-18 09:11:00,21.0,16.0,-100.00,SE,143,5.0,12.0,82,0.00,,,0.00,5.000000,,2013-02-18 15:11:00,
2013-02-18 09:42:00,22.0,18.0,-100.00,SSE,151,7.0,12.0,83,0.00,,,0.00,17.000000,,2013-02-18 15:42:00,
2013-02-18 09:53:00,22.0,18.0,-100.00,SSE,151,7.0,12.0,83,0.00,,,0.00,17.000000,,2013-02-18 15:53:00,
2013-02-18 10:03:00,22.0,18.0,-100.00,SSE,151,7.0,12.0,83,0.00,,,0.00,17.000000,,2013-02-18 16:03:00,
2013-02-18 10:12:00,22.0,18.0,-100.00,SSE,151,7.0,12.0,83,0.00,,,0.00,17.000000,,2013-02-18 16:12:00,
2013-02-18 10:33:00,23.0,19.0,-100.00,SSE,154,6.0,13.0,84,0.00,,,0.00,45.000000,,2013-02-18 16:33:00,
2013-02-18 10:43:00,23.0,19.0,-100.00,SSE,154,6.0,13.0,84,0.00,,,0.00,45.000000,,2013-02-18 16:43:00,
2013-02-18 10:53:00,23.0,19.0,-100.00,SSE,154,6.0,13.0,84,0.00,,,0.00,45.000000,,2013-02-18 16:53:00,
2013-02-18 11:03:00,23.0,19.0,-100.00,SSE,154,6.0,13.0,84,0.00,,,0.00,45.000000,,2013-02-18 17:03:00,
2013-02-18 11:12:00,23.0,19.0,-100.00,SSE,154,6.0,13.0,84,0.00,,,0.00,45.000000,,2013-02-18 17:12:00,
2013-02-18 11:43:00,24.0,22.0,-100.00,SE,144,4.0,9.0,91,0.00,,,0.00,46.000000,,2013-02-18 17:43:00,
2013-02-18 11:53:00,24.0,22.0,-100.00,SE,144,4.0,9.0,91,0.00,,,0.00,46.000000,,2013-02-18 17:53:00,
2013-02-18 12:02:00,24.0,22.0,-100.00,SE,144,4.0,9.0,91,0.00,,,0.00,46.000000,,2013-02-18 18:02:00,
2013-02-18 12:12:00,24.0,22.0,-100.00,SE,144,4.0,9.0,91,0.00,,,0.00,46.000000,,2013-02-18 18:12:00,
2013-02-18 12:33:00,25.0,24.0,-100.00,SSE,155,2.0,7.0,94,0.00,,,0.00,60.000000,,2013-02-18 18:33:00,
2013-02-18 12:43:00,25.0,24.0,-100.00,SSE,155,2.0,7.0,94,0.00,,,0.00,60.000000,,2013-02-18 18:43:00,
2013-02-18 12:53:00,25.0,24.0,-100.00,SSE,155,2.0,7.0,94,0.00,,,0.00,60.000000,,2013-02-18 18:53:00,
2013-02-18 13:03:00,25.0,24.0,-100.00,SSE,155,2.0,7.0,94,0.00,,,0.00,60.000000,,2013-02-18 19:03:00,
2013-02-18 13:12:00,25.0,24.0,-100.00,SSE,155,2.0,7.0,94,0.00,,,0.00,60.000000,,2013-02-18 19:12:00,
2013-02-18 13:43:00,25.0,23.0,-100.00,NW,308,2.0,4.0,93,0.00,,,0.00,61.000000,,2013-02-18 19:43:00,
2013-02-18 13:53:00,25.0,23.0,-100.00,NW,308,2.0,4.0,93,0.00,,,0.00,61.000000,,2013-02-18 19:53:00,
2013-02-18 14:02:00,25.0,23.0,-100.00,NW,308,2.0,4.0,93,0.00,,,0.00,61.000000,,2013-02-18 20:02:00,
2013-02-18 14:12:00,25.0,23.0,-100.00,NW,308,2.0,4.0,93,0.00,,,0.00,61.000000,,2013-02-18 20:12:00,
2013-02-18 15:43:00,23.0,23.0,-100.00,NW,324,6.0,9.0,98,-99.99,,,0.00,34.000000,,2013-02-18 21:43:00,
2013-02-18 15:53:00,23.0,23.0,-100.00,NW,324,6.0,9.0,98,-99.99,,,0.00,34.000000,,2013-02-18 21:53:00,
2013-02-18 16:02:00,23.0,23.0,-100.00,NW,324,6.0,9.0,98,-99.99,,,0.00,34.000000,,2013-02-18 22:02:00,
2013-02-18 16:12:00,23.0,23.0,-100.00,NW,324,6.0,9.0,98,-99.99,,,0.00,34.000000,,2013-02-18 22:12:00,
2013-02-18 17:34:00,22.0,21.0,-100.00,NNW,327,6.0,12.0,97,-99.99,,,0.00,9.000000,,2013-02-18 23:34:00,
2013-02-18 17:43:00,22.0,21.0,-100.00,NNW,327,6.0,12.0,97,-99.99,,,0.00,9.000000,,2013-02-18 23:43:00,
2013-02-18 17:53:00,22.0,21.0,-100.00,NNW,327,6.0,12.0,97,-99.99,,,0.00,9.000000,,2013-02-18 23:53:00,
2013-02-18 18:03:00,22.0,21.0,-100.00,NNW,327,6.0,12.0,97,-99.99,,,0.00,9.000000,,2013-02-19 00:03:00,
2013-02-18 18:12:00,22.0,21.0,-100.00,NNW,327,6.0,12.0,97,-99.99,,,0.00,9.000000,,2013-02-19 00:12:00,
2013-02-18 18:13:00,21.0,20.0,-100.00,NW,324,13.0,21.0,95,0.00,,,0.00,1.000000,,2013-02-19 00:13:00,
2013-02-18 18:35:00,21.0,20.0,-100.00,NW,324,13.0,21.0,95,0.00,,,0.00,1.000000,,2013-02-19 00:35:00,
2013-02-18 18:44:00,21.0,20.0,-100.00,NW,324,13.0,21.0,95,0.00,,,0.00,1.000000,,2013-02-19 00:44:00,
2013-02-18 18:54:00,21.0,20.0,-100.00,NW,324,13.0,21.0,95,0.00,,,0.00,1.000000,,2013-02-19 00:54:00,
2013-02-18 19:03:00,21.0,20.0,-100.00,NW,324,13.0,21.0,95,0.00,,,0.00,1.000000,,2013-02-19 01:03:00,
2013-02-18 19:13:00,14.0,12.0,-100.00,NNW,333,12.0,23.0,91,0.00,,,-99.99,0.000000,,2013-02-19 01:13:00,
2013-02-18 19:45:00,14.0,12.0,-100.00,NNW,333,12.0,23.0,91,0.00,,,-99.99,0.000000,,2013-02-19 01:45:00,
2013-02-18 19:56:00,14.0,12.0,-100.00,NNW,333,12.0,23.0,91,0.00,,,-99.99,0.000000,,2013-02-19 01:56:00,
2013-02-18 20:03:00,14.0,12.0,-100.00,NNW,333,12.0,23.0,91,0.00,,,-99.99,0.000000,,2013-02-19 02:03:00,
2013-02-18 20:13:00,11.0,8.0,-100.00,NNW,331,14.0,24.0,89,0.00,,,0.00,0.000000,,2013-02-19 02:13:00,
2013-02-18 20:44:00,11.0,8.0,-100.00,NNW,331,14.0,24.0,89,0.00,,,0.00,0.000000,,2013-02-19 02:44:00,
2013-02-18 20:55:00,11.0,8.0,-100.00,NNW,331,14.0,24.0,89,0.00,,,0.00,0.000000,,2013-02-19 02:55:00,
2013-02-18 21:06:00,11.0,8.0,-100.00,NNW,331,14.0,24.0,89,0.00,,,0.00,0.000000,,2013-02-19 03:06:00,
2013-02-18 21:13:00,8.0,5.0,-100.00,NNW,337,14.0,26.0,86,0.00,,,0.00,0.000000,,2013-02-19 03:13:00,
2013-02-18 21:35:00,8.0,5.0,-100.00,NNW,337,14.0,26.0,86,0.00,,,0.00,0.000000,,2013-02-19 03:35:00,
2013-02-18 21:45:00,8.0,5.0,-100.00,NNW,337,14.0,26.0,86,0.00,,,0.00,0.000000,,2013-02-19 03:45:00,
2013-02-18 21:55:00,8.0,5.0,-100.00,NNW,337,14.0,26.0,86,0.00,,,0.00,0.000000,,2013-02-19 03:55:00,
2013-02-18 22:02:00,8.0,5.0,-100.00,NNW,337,14.0,26.0,86,0.00,,,0.00,0.000000,,2013-02-19 04:02:00,
2013-02-18 22:34:00,5.0,1.0,-100.00,NNW,335,14.0,24.0,84,0.00,,,0.00,0.000000,,2013-02-19 04:34:00,
2013-02-18 22:45:00,5.0,1.0,-100.00,NNW,335,14.0,24.0,84,0.00,,,0.00,0.000000,,2013-02-19 04:45:00,
2013-02-18 22:55:00,5.0,1.0,-100.00,NNW,335,14.0,24.0,84,0.00,,,0.00,0.000000,,2013-02-19 04:55:00,
2013-02-18 23:02:00,5.0,1.0,-100.00,NNW,335,14.0,24.0,84,0.00,,,0.00,0.000000,,2013-02-19 05:02:00,
2013-02-18 23:12:00,5.0,1.0,-100.00,NNW,335,14.0,24.0,84,0.00,,,0.00,0.000000,,2013-02-19 05:12:00,
2013-02-18 23:32:00,4.0,0.0,-100.00,NNW,332,12.0,25.0,83,0.00,,,0.00,0.000000,,2013-02-19 05:32:00,
2013-02-18 23:43:00,4.0,0.0,-100.00,NNW,332,12.0,25.0,83,0.00,,,0.00,0.000000,,2013-02-19 05:43:00,
2013-02-18 23:52:00,4.0,0.0,-100.00,NNW,332,12.0,25.0,83,0.00,,,0.00,0.000000,,2013-02-19 05:52:00,